Time;durP1;ratioP1;P1;durP2;ratioP2;P2;SDS_P1;SDS_P2;PMS_P1;PMS_P2;Temp;Humidity;BMP_temperature;BMP_pressure;BME280_temperature;BME280_humidity;BME280_pressure;Samples;Min_cycle;Max_cycle;Signal;HPM_P1;HPM_P2
2021/11/01 00:00:24;;;;;;;5.18;4.28;;;;;;;;;;5031383;28;20053;-69
2021/11/01 00:02:54;;;;;;;5.75;4.75;;;;;;;;;;5031078;28;20076;-69
2021/11/01 00:05:22;;;;;;;6.15;4.35;;;;;;;;;;5031274;28;20525;-69
2021/11/01 00:07:49;;;;;;;4.50;3.20;;;;;;;;;;5029892;28;20049;-69
2021/11/01 00:10:16;;;;;;;3.80;3.33;;;;;;;;;;5031690;28;20455;-69
2021/11/01 00:12:43;;;;;;;3.47;2.80;;;;;;;;;;5031133;28;20045;-69
2021/11/01 00:15:10;;;;;;;2.90;2.35;;;;;;;;;;5031657;28;20049;-69
2021/11/01 00:17:38;;;;;;;2.85;2.35;;;;;;;;;;5031248;28;20049;-70
2021/11/01 00:20:06;;;;;;;3.53;2.08;;;;;;;;;;5031380;28;20462;-70
2021/11/01 00:22:33;;;;;;;3.67;2.20;;;;;;;;;;5030982;28;20045;-69
2021/11/01 00:25:01;;;;;;;2.80;1.88;;;;;;;;;;5031269;28;20467;-70
2021/11/01 00:27:27;;;;;;;3.15;2.10;;;;;;;;;;5031346;28;20054;-69
2021/11/01 00:29:54;;;;;;;3.20;1.83;;;;;;;;;;5030968;28;20084;-70
2021/11/01 00:32:21;;;;;;;2.50;2.30;;;;;;;;;;5031042;28;20045;-70
2021/11/01 00:34:48;;;;;;;2.42;1.60;;;;;;;;;;5031245;28;20056;-69
2021/11/01 00:37:14;;;;;;;1.90;1.65;;;;;;;;;;5031125;28;20053;-69
2021/11/01 00:39:41;;;;;;;2.47;1.30;;;;;;;;;;5031045;28;20127;-69
2021/11/01 00:42:09;;;;;;;1.67;1.58;;;;;;;;;;5030838;28;20046;-69
2021/11/01 00:44:36;;;;;;;1.50;1.40;;;;;;;;;;5033925;28;20463;-69
2021/11/01 00:47:03;;;;;;;3.40;1.55;;;;;;;;;;5034770;28;20060;-69
2021/11/01 00:49:30;;;;;;;1.90;1.50;;;;;;;;;;5034479;28;20057;-69
2021/11/01 00:51:59;;;;;;;1.88;1.50;;;;;;;;;;5034273;28;20327;-69
2021/11/01 00:54:26;;;;;;;2.88;1.63;;;;;;;;;;5034280;28;20567;-69
2021/11/01 00:56:52;;;;;;;2.10;1.63;;;;;;;;;;5034290;28;20504;-69
2021/11/01 00:59:20;;;;;;;2.58;1.77;;;;;;;;;;5034319;28;20045;-69
2021/11/01 01:01:47;;;;;;;3.50;2.08;;;;;;;;;;5034089;28;20084;-69
2021/11/01 01:04:15;;;;;;;2.13;1.60;;;;;;;;;;5034226;28;20567;-69
2021/11/01 01:06:42;;;;;;;1.80;1.55;;;;;;;;;;5034266;28;20424;-69
2021/11/01 01:09:09;;;;;;;2.47;1.38;;;;;;;;;;5034223;28;20045;-70
2021/11/01 01:11:35;;;;;;;2.13;1.70;;;;;;;;;;5033923;28;20045;-69
2021/11/01 01:14:02;;;;;;;3.22;2.00;;;;;;;;;;5034232;28;20184;-69
2021/11/01 01:16:31;;;;;;;2.92;1.67;;;;;;;;;;5034092;28;20050;-69
2021/11/01 01:18:59;;;;;;;4.57;1.75;;;;;;;;;;5033955;28;20049;-69
2021/11/01 01:24:12;;;;;;;3.60;1.90;;;;;;;;;;5034119;28;20049;-69
2021/11/01 01:26:39;;;;;;;2.22;1.85;;;;;;;;;;5033785;28;20091;-69
2021/11/01 01:29:07;;;;;;;4.13;1.75;;;;;;;;;;5033966;28;20621;-69
2021/11/01 01:31:33;;;;;;;3.17;2.15;;;;;;;;;;5033561;28;20050;-69
2021/11/01 01:34:00;;;;;;;2.00;1.80;;;;;;;;;;5033972;28;20053;-69
2021/11/01 01:36:27;;;;;;;2.22;1.75;;;;;;;;;;5033757;28;20058;-69
2021/11/01 01:38:54;;;;;;;2.25;1.88;;;;;;;;;;5033497;28;20057;-69
2021/11/01 01:41:25;;;;;;;1.60;1.30;;;;;;;;;;5033517;28;20049;-69
2021/11/01 01:43:53;;;;;;;7.35;4.47;;;;;;;;;;5033232;28;20050;-69
2021/11/01 01:46:21;;;;;;;19.23;10.65;;;;;;;;;;5033491;28;20500;-69
2021/11/01 01:48:49;;;;;;;4.72;3.58;;;;;;;;;;5033270;28;20497;-69
2021/11/01 01:51:16;;;;;;;2.50;2.30;;;;;;;;;;5033397;28;20053;-69
2021/11/01 01:53:43;;;;;;;2.65;2.03;;;;;;;;;;5032567;28;20050;-69
2021/11/01 01:56:10;;;;;;;3.17;1.40;;;;;;;;;;5033431;28;20115;-69
2021/11/01 01:58:45;;;;;;;3.13;1.30;;;;;;;;;;5033263;28;20389;-69
2021/11/01 02:01:15;;;;;;;5.35;0.93;;;;;;;;;;5033246;28;20577;-69
2021/11/01 02:03:49;;;;;;;2.45;0.80;;;;;;;;;;5033005;28;20053;-69
2021/11/01 02:06:34;;;;;;;1.77;0.70;;;;;;;;;;5033195;28;20045;-69
2021/11/01 02:09:22;;;;;;;2.67;0.60;;;;;;;;;;5012140;28;20120;-69
2021/11/01 02:11:56;;;;;;;4.15;0.68;;;;;;;;;;5011841;28;20050;-69
2021/11/01 02:14:26;;;;;;;1.65;1.00;;;;;;;;;;5013284;28;20046;-69
2021/11/01 02:16:53;;;;;;;1.98;0.80;;;;;;;;;;5011806;28;20057;-69
2021/11/01 02:19:29;;;;;;;3.10;0.90;;;;;;;;;;5031675;28;20049;-69
2021/11/01 02:22:04;;;;;;;1.63;0.70;;;;;;;;;;5032872;28;20049;-69
2021/11/01 02:24:55;;;;;;;1.40;0.73;;;;;;;;;;5032784;28;20103;-69
2021/11/01 02:27:22;;;;;;;2.03;0.50;;;;;;;;;;5032699;28;20049;-69
2021/11/01 02:29:49;;;;;;;2.80;0.70;;;;;;;;;;5032509;28;20554;-69
2021/11/01 02:32:16;;;;;;;5.05;1.83;;;;;;;;;;5031282;28;20092;-69
2021/11/01 02:34:43;;;;;;;1.23;0.63;;;;;;;;;;5015158;28;20123;-69
2021/11/01 02:37:10;;;;;;;2.67;0.68;;;;;;;;;;5032641;28;20103;-69
2021/11/01 02:39:53;;;;;;;3.40;0.98;;;;;;;;;;5031203;28;20096;-69
2021/11/01 02:42:23;;;;;;;2.35;0.50;;;;;;;;;;5012611;28;20084;-69
2021/11/01 02:45:01;;;;;;;0.85;0.57;;;;;;;;;;5012603;28;20116;-69
2021/11/01 02:47:29;;;;;;;5.28;0.50;;;;;;;;;;5012518;28;20049;-69
2021/11/01 02:49:58;;;;;;;4.43;0.75;;;;;;;;;;5012443;28;20053;-69
2021/11/01 02:52:26;;;;;;;2.50;0.40;;;;;;;;;;5014036;28;20492;-69
2021/11/01 02:54:53;;;;;;;2.30;0.60;;;;;;;;;;5032102;28;20456;-69
2021/11/01 02:57:21;;;;;;;1.75;0.70;;;;;;;;;;5032108;28;20516;-69
2021/11/01 02:59:47;;;;;;;4.15;0.70;;;;;;;;;;5026034;28;20049;-69
2021/11/01 03:02:15;;;;;;;2.00;0.98;;;;;;;;;;5032464;28;20045;-69
2021/11/01 03:04:42;;;;;;;3.13;0.50;;;;;;;;;;5032003;28;20122;-69
2021/11/01 03:07:08;;;;;;;3.60;0.73;;;;;;;;;;5031428;28;20058;-69
2021/11/01 03:09:37;;;;;;;4.90;0.80;;;;;;;;;;5030632;28;20057;-69
2021/11/01 03:12:06;;;;;;;5.35;0.70;;;;;;;;;;5031844;28;20053;-69
2021/11/01 03:14:40;;;;;;;4.15;0.57;;;;;;;;;;5030795;28;20080;-69
2021/11/01 03:17:07;;;;;;;4.30;0.77;;;;;;;;;;5030796;28;20057;-69
2021/11/01 03:19:34;;;;;;;4.63;0.60;;;;;;;;;;5014304;28;20459;-69
2021/11/01 03:22:03;;;;;;;3.72;0.85;;;;;;;;;;5030498;28;20049;-69
2021/11/01 03:24:31;;;;;;;3.40;0.60;;;;;;;;;;5014284;28;20107;-69
2021/11/01 03:26:57;;;;;;;6.22;0.90;;;;;;;;;;5030579;28;20057;-69
2021/11/01 03:29:24;;;;;;;3.50;0.70;;;;;;;;;;5030647;28;20053;-69
2021/11/01 03:31:51;;;;;;;1.77;0.55;;;;;;;;;;5030130;28;20076;-69
2021/11/01 03:34:18;;;;;;;2.55;0.50;;;;;;;;;;5030339;28;20111;-69
2021/11/01 03:36:45;;;;;;;3.67;0.70;;;;;;;;;;5028640;28;20571;-69
2021/11/01 03:39:13;;;;;;;3.15;0.68;;;;;;;;;;5030371;28;20053;-69
2021/11/01 03:41:41;;;;;;;4.45;0.75;;;;;;;;;;5030119;28;20124;-69
2021/11/01 03:44:14;;;;;;;4.35;0.75;;;;;;;;;;5031586;28;20489;-69
2021/11/01 03:47:01;;;;;;;3.22;0.60;;;;;;;;;;5030540;28;20057;-69
2021/11/01 03:49:30;;;;;;;10.82;1.33;;;;;;;;;;5017008;28;20058;-69
2021/11/01 03:52:14;;;;;;;4.78;0.88;;;;;;;;;;5031140;28;20508;-69
2021/11/01 03:54:41;;;;;;;5.13;0.80;;;;;;;;;;5030604;28;20056;-69
2021/11/01 03:57:09;;;;;;;6.50;1.00;;;;;;;;;;5030421;28;20099;-69
2021/11/01 03:59:37;;;;;;;5.28;0.90;;;;;;;;;;5030172;28;20110;-69
2021/11/01 04:02:05;;;;;;;4.07;0.90;;;;;;;;;;5030059;28;20562;-69
2021/11/01 04:04:32;;;;;;;6.57;1.13;;;;;;;;;;5030243;28;20140;-69
2021/11/01 04:06:58;;;;;;;4.05;1.08;;;;;;;;;;5031423;28;20111;-69
2021/11/01 04:09:25;;;;;;;10.35;2.15;;;;;;;;;;5031299;28;20546;-69
2021/11/01 04:11:52;;;;;;;3.92;1.08;;;;;;;;;;5031020;28;20057;-69
2021/11/01 04:14:23;;;;;;;7.63;1.42;;;;;;;;;;5030161;28;20049;-69
2021/11/01 04:16:56;;;;;;;9.38;1.83;;;;;;;;;;5031571;28;20099;-69
2021/11/01 04:21:54;;;;;;;5.10;1.80;;;;;;;;;;5034944;28;20107;-69
2021/11/01 04:24:21;;;;;;;4.25;1.20;;;;;;;;;;5035065;28;20046;-69
2021/11/01 04:26:49;;;;;;;4.15;1.38;;;;;;;;;;5034909;28;20467;-69
2021/11/01 04:29:16;;;;;;;6.10;1.10;;;;;;;;;;5034731;28;20095;-69
2021/11/01 04:31:48;;;;;;;4.13;0.93;;;;;;;;;;5034538;28;20080;-69
2021/11/01 04:34:28;;;;;;;3.75;0.90;;;;;;;;;;5034978;28;20045;-69
2021/11/01 04:36:56;;;;;;;9.75;1.20;;;;;;;;;;5034680;28;20092;-69
2021/11/01 04:55:20;;;;;;;5.88;0.60;;;;;;;;;;5034585;28;20127;-69
2021/11/01 04:57:47;;;;;;;5.47;0.93;;;;;;;;;;5034169;28;20463;-69
2021/11/01 05:00:14;;;;;;;4.88;0.90;;;;;;;;;;5034302;28;20103;-69
2021/11/01 05:02:54;;;;;;;17.42;1.35;;;;;;;;;;5032961;28;20497;-69
2021/11/01 05:05:21;;;;;;;3.13;0.80;;;;;;;;;;5033131;28;20042;-69
2021/11/01 05:07:47;;;;;;;5.35;1.52;;;;;;;;;;5034055;28;20049;-69
2021/11/01 05:10:23;;;;;;;5.97;1.42;;;;;;;;;;5034195;28;20049;-69
2021/11/01 05:12:50;;;;;;;2.85;0.80;;;;;;;;;;5034067;28;20050;-69
2021/11/01 05:17:59;;;;;;;7.82;1.60;;;;;;;;;;5033947;28;20424;-69
2021/11/01 05:20:42;;;;;;;5.55;1.00;;;;;;;;;;5034017;28;20487;-69
2021/11/01 05:23:30;;;;;;;4.63;0.90;;;;;;;;;;5033446;28;20057;-69
2021/11/01 05:26:03;;;;;;;8.43;2.20;;;;;;;;;;5033851;28;20492;-69
2021/11/01 05:28:45;;;;;;;3.08;1.02;;;;;;;;;;5033331;28;20099;-69
2021/11/01 05:31:24;;;;;;;4.97;1.15;;;;;;;;;;5033820;28;20049;-69
2021/11/01 05:33:58;;;;;;;3.60;1.13;;;;;;;;;;5033569;28;20045;-69
2021/11/01 05:36:25;;;;;;;5.00;1.08;;;;;;;;;;5033869;28;20057;-69
2021/11/01 05:38:52;;;;;;;4.45;1.30;;;;;;;;;;5033497;28;20057;-69
2021/11/01 05:41:19;;;;;;;2.75;0.95;;;;;;;;;;5033678;28;20049;-69
2021/11/01 05:43:46;;;;;;;10.02;2.47;;;;;;;;;;5033207;28;20503;-69
2021/11/01 05:46:14;;;;;;;5.30;1.08;;;;;;;;;;5033632;28;20467;-69
2021/11/01 05:48:49;;;;;;;3.97;1.45;;;;;;;;;;5033390;28;20046;-69
2021/11/01 05:51:17;;;;;;;4.35;1.30;;;;;;;;;;5033293;28;20099;-69
2021/11/01 05:53:45;;;;;;;5.75;1.30;;;;;;;;;;5033229;28;20118;-69
2021/11/01 06:15:02;;;;;;;9.85;3.75;;;;;;;;;;5032981;28;20483;-69
2021/11/01 06:17:31;;;;;;;10.75;4.53;;;;;;;;;;5032774;28;20512;-69
2021/11/01 06:19:58;;;;;;;8.52;3.83;;;;;;;;;;5031825;28;20057;-69
2021/11/01 06:22:25;;;;;;;7.57;3.28;;;;;;;;;;5032521;28;20083;-69
2021/11/01 06:24:59;;;;;;;6.68;2.47;;;;;;;;;;5020551;28;20497;-68
2021/11/01 06:27:26;;;;;;;7.55;2.03;;;;;;;;;;5032846;28;20471;-69
2021/11/01 06:43:16;;;;;;;6.03;1.63;;;;;;;;;;5030361;28;20054;-67
2021/11/01 06:51:32;;;;;;;6.22;1.88;;;;;;;;;;5030187;28;20099;-67
2021/11/01 07:16:07;;;;;;;4.22;1.38;;;;;;;;;;5029326;28;20057;-66
2021/11/01 07:18:47;;;;;;;4.68;1.33;;;;;;;;;;5029851;28;20057;-67
2021/11/01 07:21:33;;;;;;;2.88;0.95;;;;;;;;;;5029743;28;20061;-66
2021/11/01 08:29:41;;;;;;;2.63;0.50;;;;;;;;;;5032598;28;20504;-67
2021/11/01 09:04:48;;;;;;;3.28;1.30;;;;;;;;;;5018877;28;20124;-68
2021/11/01 09:10:16;;;;;;;4.55;1.50;;;;;;;;;;5019812;28;20130;-72
2021/11/01 09:26:24;;;;;;;1.50;0.80;;;;;;;;;;5017774;28;20050;-67
2021/11/01 09:29:12;;;;;;;2.25;0.80;;;;;;;;;;5018255;28;20045;-68
2021/11/01 09:43:14;;;;;;;2.05;1.48;;;;;;;;;;5007700;28;20049;-67
2021/11/01 09:45:44;;;;;;;4.15;2.03;;;;;;;;;;4990964;28;20041;-67
2021/11/01 09:48:13;;;;;;;2.30;1.55;;;;;;;;;;5010723;28;20061;-67
2021/11/01 09:50:41;;;;;;;4.68;1.52;;;;;;;;;;5023027;28;20050;-67
2021/11/01 09:53:37;;;;;;;3.03;1.20;;;;;;;;;;5020241;28;20050;-67
2021/11/01 10:01:17;;;;;;;4.38;1.30;;;;;;;;;;5020624;28;20049;-67
2021/11/01 10:03:46;;;;;;;1.75;1.17;;;;;;;;;;5016730;28;20058;-69
2021/11/01 10:06:22;;;;;;;2.65;1.05;;;;;;;;;;5018740;28;20046;-73
2021/11/01 10:08:52;;;;;;;2.88;1.10;;;;;;;;;;5019350;28;20061;-70
2021/11/01 10:11:22;;;;;;;2.25;1.00;;;;;;;;;;5015325;28;20541;-68
2021/11/01 10:13:52;;;;;;;1.70;1.30;;;;;;;;;;5019235;28;20481;-68
2021/11/01 10:19:14;;;;;;;3.60;1.35;;;;;;;;;;5018545;28;20103;-67
2021/11/01 10:21:52;;;;;;;1.88;0.80;;;;;;;;;;5002223;28;20123;-68
2021/11/01 10:24:25;;;;;;;2.22;1.20;;;;;;;;;;5022748;28;20088;-69
2021/11/01 10:26:52;;;;;;;1.65;1.25;;;;;;;;;;5016457;28;20050;-68
2021/11/01 10:29:19;;;;;;;1.65;1.25;;;;;;;;;;5013951;28;20301;-68
2021/11/01 10:31:47;;;;;;;2.08;1.30;;;;;;;;;;5016219;28;20084;-69
2021/11/01 10:34:14;;;;;;;2.40;1.20;;;;;;;;;;5016655;28;20062;-67
2021/11/01 10:36:43;;;;;;;2.35;1.00;;;;;;;;;;5016803;28;20096;-67
2021/11/01 10:39:19;;;;;;;2.00;1.38;;;;;;;;;;5019903;28;20050;-66
2021/11/01 10:41:53;;;;;;;1.60;0.80;;;;;;;;;;5017376;28;20424;-68
2021/11/01 11:12:58;;;;;;;1.17;0.82;;;;;;;;;;5019740;28;20045;-67
2021/11/01 11:15:26;;;;;;;2.33;1.05;;;;;;;;;;5017621;28;20497;-68
2021/11/01 11:26:07;;;;;;;2.20;0.98;;;;;;;;;;5006190;28;20045;-67
2021/11/01 11:47:46;;;;;;;1.75;1.00;;;;;;;;;;5018863;28;20045;-69
2021/11/01 11:50:25;;;;;;;1.98;1.25;;;;;;;;;;5021490;28;20105;-71
2021/11/01 11:52:52;;;;;;;2.70;0.90;;;;;;;;;;5023211;28;20061;-71
2021/11/01 11:55:26;;;;;;;4.53;2.75;;;;;;;;;;5021021;28;20081;-69
2021/11/01 11:57:55;;;;;;;3.42;1.90;;;;;;;;;;5018410;28;20100;-65
2021/11/01 12:00:25;;;;;;;3.08;1.98;;;;;;;;;;5022974;28;20049;-65
2021/11/01 12:03:06;;;;;;;1.92;0.98;;;;;;;;;;5017610;28;20053;-66
2021/11/01 12:05:38;;;;;;;4.68;1.27;;;;;;;;;;5018924;28;20500;-64
2021/11/01 12:08:17;;;;;;;3.20;1.35;;;;;;;;;;5017176;28;20103;-69
2021/11/01 12:19:11;;;;;;;1.98;1.52;;;;;;;;;;5023676;28;20053;-71
2021/11/01 12:21:41;;;;;;;2.42;1.35;;;;;;;;;;5031271;28;20046;-70
2021/11/01 12:24:12;;;;;;;3.13;1.50;;;;;;;;;;5021071;28;20080;-71
2021/11/01 12:26:44;;;;;;;2.00;1.58;;;;;;;;;;5021882;28;20049;-70
2021/11/01 12:29:13;;;;;;;2.20;1.40;;;;;;;;;;5021516;28;20050;-70
2021/11/01 12:31:41;;;;;;;2.65;1.10;;;;;;;;;;5022328;28;20053;-72
2021/11/01 12:34:18;;;;;;;2.60;1.20;;;;;;;;;;5017403;28;20057;-71
2021/11/01 12:36:58;;;;;;;3.90;1.52;;;;;;;;;;5022158;28;20096;-68
2021/11/01 12:39:43;;;;;;;6.10;1.63;;;;;;;;;;5025243;28;20053;-71
2021/11/01 12:58:51;;;;;;;5.38;2.72;;;;;;;;;;5019318;28;20144;-70
2021/11/01 13:01:18;;;;;;;3.17;1.73;;;;;;;;;;5024727;28;20100;-69
2021/11/01 13:03:59;;;;;;;2.17;1.40;;;;;;;;;;5018926;28;20050;-67
2021/11/01 13:09:20;;;;;;;3.88;1.40;;;;;;;;;;5023013;28;20045;-66
2021/11/01 13:12:04;;;;;;;2.55;1.58;;;;;;;;;;5021676;28;20085;-66
2021/11/01 13:17:55;;;;;;;2.03;1.60;;;;;;;;;;5020792;28;20056;-66
2021/11/01 13:20:22;;;;;;;2.30;1.30;;;;;;;;;;5020898;28;20049;-65
2021/11/01 13:22:54;;;;;;;1.80;1.38;;;;;;;;;;5019116;28;20046;-69
2021/11/01 13:25:33;;;;;;;2.53;1.30;;;;;;;;;;5025023;28;20045;-69
2021/11/01 13:28:43;;;;;;;2.53;1.48;;;;;;;;;;5019546;28;20054;-68
2021/11/01 13:35:00;;;;;;;3.33;1.67;;;;;;;;;;5023452;28;20081;-69
2021/11/01 13:37:11;;;;;;;1.45;1.10;;;;;;;;;;5020613;28;20550;-65
2021/11/01 13:39:38;;;;;;;2.65;1.73;;;;;;;;;;5025067;28;20053;-65
2021/11/01 13:42:16;;;;;;;1.48;1.10;;;;;;;;;;5022009;28;20704;-65
2021/11/01 13:44:43;;;;;;;2.45;1.60;;;;;;;;;;5022628;28;20073;-65
2021/11/01 13:47:14;;;;;;;2.38;1.80;;;;;;;;;;5020289;28;20566;-64
2021/11/01 13:49:44;;;;;;;2.90;1.80;;;;;;;;;;5017430;28;20464;-65
2021/11/01 13:52:23;;;;;;;1.48;1.38;;;;;;;;;;5017862;28;20045;-65
2021/11/01 13:58:02;;;;;;;2.85;1.40;;;;;;;;;;5017891;28;20049;-64
2021/11/01 14:03:07;;;;;;;3.58;1.52;;;;;;;;;;5017418;28;20527;-65
2021/11/01 14:11:35;;;;;;;2.75;1.30;;;;;;;;;;5019472;28;20103;-65
2021/11/01 14:26:59;;;;;;;2.13;1.50;;;;;;;;;;5018975;28;20068;-65
2021/11/01 15:16:26;;;;;;;4.40;2.35;;;;;;;;;;5020669;28;20124;-71
2021/11/01 15:19:18;;;;;;;1.92;1.73;;;;;;;;;;5022817;28;20063;-68
2021/11/01 15:22:09;;;;;;;2.95;2.05;;;;;;;;;;5023001;28;20073;-72
2021/11/01 16:18:42;;;;;;;5.38;2.00;;;;;;;;;;5004566;28;20049;-72
2021/11/01 16:21:09;;;;;;;3.95;2.20;;;;;;;;;;5022237;28;20103;-74
2021/11/01 16:23:36;;;;;;;4.03;2.58;;;;;;;;;;5025428;28;20578;-72
2021/11/01 16:26:39;;;;;;;2.78;2.33;;;;;;;;;;5021590;28;20053;-71
2021/11/01 16:29:09;;;;;;;5.07;2.15;;;;;;;;;;5022165;28;20054;-76
2021/11/01 16:31:46;;;;;;;2.78;2.13;;;;;;;;;;5035253;28;20464;-70
2021/11/01 16:34:30;;;;;;;5.93;2.25;;;;;;;;;;5026337;28;20053;-72
2021/11/01 16:39:30;;;;;;;3.28;1.92;;;;;;;;;;5026319;28;20050;-70
2021/11/01 16:41:58;;;;;;;5.18;2.50;;;;;;;;;;5022578;28;20053;-71
2021/11/01 16:44:31;;;;;;;5.43;2.42;;;;;;;;;;5027925;28;20448;-72
2021/11/01 16:46:58;;;;;;;4.50;2.80;;;;;;;;;;5018479;28;20464;-70
2021/11/01 16:49:28;;;;;;;4.13;2.47;;;;;;;;;;5024044;28;20046;-72
2021/11/01 16:51:54;;;;;;;3.85;2.50;;;;;;;;;;5019128;28;20049;-73
2021/11/01 16:54:25;;;;;;;4.60;2.85;;;;;;;;;;5022041;28;20045;-73
2021/11/01 16:57:24;;;;;;;5.90;2.58;;;;;;;;;;5023374;28;20565;-72
2021/11/01 17:02:59;;;;;;;3.58;2.17;;;;;;;;;;5018488;28;20049;-70
2021/11/01 17:05:36;;;;;;;5.93;2.33;;;;;;;;;;5021749;28;20050;-70
2021/11/01 17:21:43;;;;;;;3.03;2.65;;;;;;;;;;5023313;28;20064;-68
2021/11/01 18:41:32;;;;;;;5.85;4.15;;;;;;;;;;5017992;28;20585;-71
2021/11/01 18:52:07;;;;;;;4.03;2.50;;;;;;;;;;4998536;28;20050;-69
2021/11/01 18:54:41;;;;;;;3.28;2.83;;;;;;;;;;5013860;28;20057;-70
2021/11/01 18:57:10;;;;;;;4.22;3.33;;;;;;;;;;5015609;28;20049;-69
2021/11/01 18:59:39;;;;;;;5.18;3.80;;;;;;;;;;5014835;28;20058;-69
2021/11/01 19:02:36;;;;;;;9.27;3.20;;;;;;;;;;5015631;28;20057;-68
2021/11/01 19:05:26;;;;;;;5.47;3.85;;;;;;;;;;5019054;28;20080;-70
2021/11/01 20:03:59;;;;;;;2.38;1.98;;;;;;;;;;5017384;28;20060;-68
2021/11/01 21:26:59;;;;;;;;;;;;;;;;;;5014493;28;20058;-70
2021/11/01 21:29:27;;;;;;;3.20;1.95;;;;;;;;;;5019505;28;19921;-70
2021/11/01 21:31:54;;;;;;;3.05;2.13;;;;;;;;;;5032986;28;20053;-70
2021/11/01 21:34:35;;;;;;;3.25;2.20;;;;;;;;;;5033991;28;20081;-70
2021/11/01 21:37:04;;;;;;;3.95;2.15;;;;;;;;;;5015242;28;20104;-70
2021/11/01 21:39:31;;;;;;;2.70;1.80;;;;;;;;;;5013771;28;20050;-70
2021/11/01 21:41:58;;;;;;;4.15;2.05;;;;;;;;;;5013652;28;20111;-69
2021/11/01 21:44:25;;;;;;;3.13;1.80;;;;;;;;;;5013998;28;20085;-70
2021/11/01 21:46:51;;;;;;;2.40;2.20;;;;;;;;;;5013803;28;20054;-70
2021/11/01 21:49:18;;;;;;;3.63;2.65;;;;;;;;;;5013846;28;20460;-69
2021/11/01 21:51:45;;;;;;;5.63;2.40;;;;;;;;;;5013497;28;20100;-70
2021/11/01 21:56:55;;;;;;;4.78;2.47;;;;;;;;;;5028923;28;20099;-70
2021/11/01 21:59:55;;;;;;;3.05;2.28;;;;;;;;;;5033603;28;20115;-70
2021/11/01 22:21:30;;;;;;;4.63;3.92;;;;;;;;;;5032983;28;20100;-70
2021/11/01 22:34:35;;;;;;;4.63;3.15;;;;;;;;;;5032870;28;20060;-70
2021/11/01 22:39:56;;;;;;;5.35;2.80;;;;;;;;;;5032426;28;20045;-69
2021/11/01 22:58:18;;;;;;;5.22;2.95;;;;;;;;;;5031155;28;20505;-70
2021/11/01 23:00:51;;;;;;;4.05;2.65;;;;;;;;;;5031982;28;20107;-70
2021/11/01 23:03:29;;;;;;;4.28;3.22;;;;;;;;;;5031825;28;20241;-71
2021/11/01 23:33:34;;;;;;;9.32;3.85;;;;;;;;;;5031737;28;20436;-70
2021/11/01 23:36:01;;;;;;;8.52;2.92;;;;;;;;;;5032009;28;20103;-70
2021/11/01 23:38:28;;;;;;;5.45;3.33;;;;;;;;;;5031803;28;20053;-70
2021/11/01 23:40:55;;;;;;;3.88;2.60;;;;;;;;;;5031477;28;20493;-69
2021/11/01 23:43:21;;;;;;;9.27;2.90;;;;;;;;;;5031560;28;20119;-69
2021/11/01 23:45:48;;;;;;;4.90;2.70;;;;;;;;;;5031461;28;20050;-70
2021/11/01 23:48:17;;;;;;;4.22;2.45;;;;;;;;;;5031569;28;20072;-70
2021/11/01 23:50:45;;;;;;;3.85;2.70;;;;;;;;;;5031416;28;20127;-70
2021/11/01 23:53:39;;;;;;;4.00;2.53;;;;;;;;;;5031602;28;20088;-69
2021/11/01 23:56:06;;;;;;;4.57;3.20;;;;;;;;;;5031388;28;20050;-69
2021/11/01 23:58:37;;;;;;;29.63;14.27;;;;;;;;;;5031472;28;20107;-70
